createdAt,value
2019-02-20T00:01:53.963Z,5.95
2019-02-20T00:06:59.979Z,3.93
2019-02-20T00:12:06.055Z,5.89
2019-02-20T00:17:12.077Z,5.40
2019-02-20T00:22:18.093Z,5.88
2019-02-20T00:27:24.110Z,5.70
2019-02-20T00:32:30.099Z,6.69
2019-02-20T00:37:36.086Z,9.53
2019-02-20T00:42:42.057Z,4.91
2019-02-20T00:47:48.072Z,3.59
2019-02-20T00:52:54.071Z,3.89
2019-02-20T00:58:00.232Z,5.09
2019-02-20T01:03:06.279Z,5.41
2019-02-20T01:08:12.244Z,5.60
2019-02-20T01:13:18.222Z,6.79
2019-02-20T01:18:24.239Z,6.13
2019-02-20T01:23:30.258Z,5.88
2019-02-20T01:28:36.386Z,6.20
2019-02-20T01:33:42.407Z,6.19
2019-02-20T01:38:48.471Z,6.06
2019-02-20T01:43:54.606Z,6.03
2019-02-20T01:49:00.614Z,5.53
2019-02-20T01:54:06.574Z,6.31
2019-02-20T01:59:12.554Z,6.28
2019-02-20T02:04:18.562Z,5.45
2019-02-20T02:09:24.596Z,6.14
2019-02-20T02:14:30.581Z,6.01
2019-02-20T02:19:36.575Z,5.98
2019-02-20T02:24:42.540Z,6.89
2019-02-20T02:29:48.543Z,5.21
2019-02-20T02:34:54.596Z,10.98
2019-02-20T02:40:00.625Z,5.90
2019-02-20T02:45:06.702Z,6.97
2019-02-20T02:50:12.680Z,5.66
2019-02-20T02:55:18.656Z,6.31
2019-02-20T03:00:24.678Z,5.89
2019-02-20T03:05:30.693Z,6.73
2019-02-20T03:10:36.705Z,6.20
2019-02-20T03:15:42.678Z,5.39
2019-02-20T03:20:48.727Z,5.66
2019-02-20T03:25:54.733Z,5.80
2019-02-20T03:31:00.726Z,5.49
2019-02-20T03:36:06.720Z,6.35
2019-02-20T03:41:12.693Z,10.29
2019-02-20T03:46:18.723Z,6.43
2019-02-20T03:51:24.730Z,5.61
2019-02-20T03:56:30.793Z,7.03
2019-02-20T04:01:36.881Z,6.19
2019-02-20T04:06:42.871Z,6.35
2019-02-20T04:11:48.887Z,11.77
2019-02-20T04:16:54.854Z,6.56
2019-02-20T04:22:00.880Z,6.82
2019-02-20T04:27:06.913Z,5.54
2019-02-20T04:32:12.909Z,5.89
2019-02-20T04:37:18.934Z,6.06
2019-02-20T04:42:24.935Z,5.80
2019-02-20T04:47:30.927Z,6.81
2019-02-20T04:52:36.931Z,5.78
2019-02-20T04:57:45.966Z,10.30
2019-02-20T05:02:51.963Z,8.85
2019-02-20T05:07:57.969Z,11.74
2019-02-20T05:13:03.967Z,5.19
2019-02-20T05:18:10.090Z,7.00
2019-02-20T05:23:16.134Z,6.01
2019-02-20T05:28:22.258Z,8.29
2019-02-20T05:33:28.233Z,5.43
2019-02-20T05:38:34.367Z,5.90
2019-02-20T05:43:40.380Z,7.65
2019-02-20T05:48:46.371Z,7.29
2019-02-20T05:53:52.386Z,6.44
2019-02-20T05:59:00.301Z,6.55
2019-02-20T06:04:06.532Z,6.94
2019-02-20T06:09:12.559Z,6.25
2019-02-20T06:14:18.652Z,13.48
2019-02-20T06:19:24.710Z,15.60
2019-02-20T06:24:30.710Z,7.40
2019-02-20T06:29:36.782Z,9.09
2019-02-20T06:34:42.802Z,14.43
2019-02-20T06:39:48.846Z,6.64
2019-02-20T06:44:54.866Z,8.70
2019-02-20T06:50:01.390Z,5.61
2019-02-20T06:55:06.553Z,7.51
2019-02-20T07:00:12.527Z,12.65
2019-02-20T07:05:18.558Z,6.55
2019-02-20T07:10:24.672Z,6.54
2019-02-20T07:15:30.767Z,11.69
2019-02-20T07:20:36.776Z,6.72
2019-02-20T07:25:42.912Z,6.98
2019-02-20T07:30:49.606Z,5.73
2019-02-20T07:35:55.626Z,6.81
2019-02-20T07:41:01.658Z,6.35
2019-02-20T07:46:07.724Z,6.41
2019-02-20T07:51:14.911Z,7.32
2019-02-20T07:56:19.344Z,6.90
2019-02-20T08:01:25.486Z,14.00
2019-02-20T08:06:31.679Z,6.19
2019-02-20T08:11:37.738Z,6.81
2019-02-20T08:16:51.988Z,7.87
2019-02-20T08:21:52.448Z,8.24
2019-02-20T08:26:58.544Z,7.74
2019-02-20T08:32:04.677Z,15.76
2019-02-20T08:37:10.666Z,7.97
2019-02-20T08:42:16.730Z,8.71
2019-02-20T08:47:22.742Z,9.20
2019-02-20T08:52:28.815Z,10.02
2019-02-20T08:57:34.870Z,9.88
2019-02-20T09:02:40.915Z,9.98
2019-02-20T09:07:47.031Z,9.84
2019-02-20T09:12:53.082Z,10.24
2019-02-20T09:17:59.119Z,14.67
2019-02-20T09:23:05.295Z,11.06
2019-02-20T09:28:11.306Z,14.04
2019-02-20T09:33:17.332Z,14.02
2019-02-20T09:38:23.414Z,15.00
2019-02-20T09:43:29.474Z,16.45
2019-02-20T09:48:35.745Z,27.07
2019-02-20T09:53:41.859Z,15.21
2019-02-20T09:58:47.921Z,16.29
2019-02-20T10:03:53.937Z,26.89
2019-02-20T10:08:59.982Z,15.72
2019-02-20T10:14:05.999Z,14.71
2019-02-20T10:19:12.087Z,15.41
2019-02-20T10:24:18.079Z,16.35
2019-02-20T10:29:24.107Z,14.91
2019-02-20T10:34:30.121Z,16.59
2019-02-20T10:39:37.787Z,14.20
2019-02-20T10:44:42.353Z,15.56
2019-02-20T10:49:48.405Z,13.34
2019-02-20T10:54:57.714Z,13.90
2019-02-20T11:00:00.363Z,12.85
2019-02-20T11:05:06.388Z,10.45
2019-02-20T11:10:12.495Z,23.48
2019-02-20T11:15:18.568Z,11.20
2019-02-20T11:20:24.596Z,12.27
2019-02-20T11:25:31.325Z,12.44
2019-02-20T11:30:36.149Z,10.81
2019-02-20T11:35:42.169Z,19.29
2019-02-20T11:40:48.286Z,9.20
2019-02-20T11:45:54.479Z,10.05
2019-02-20T11:51:00.497Z,15.05
2019-02-20T11:56:06.596Z,9.54
2019-02-20T12:01:12.787Z,9.53
2019-02-20T12:06:18.876Z,11.05
2019-02-20T12:11:24.879Z,8.82
2019-02-20T12:16:30.880Z,8.23
2019-02-20T12:21:36.908Z,8.89
2019-02-20T12:26:45.052Z,9.42
2019-02-20T12:31:52.424Z,7.42
2019-02-20T12:36:55.672Z,8.04
2019-02-20T12:42:01.739Z,5.79
2019-02-20T12:47:11.883Z,6.86
2019-02-20T12:52:08.215Z,5.15
2019-02-20T12:57:14.288Z,6.98
2019-02-20T13:02:20.262Z,5.74
2019-02-20T13:07:29.792Z,4.07
2019-02-20T13:12:36.391Z,5.09
2019-02-20T13:22:49.661Z,5.09
2019-02-20T13:27:48.627Z,6.63
2019-02-20T13:32:58.710Z,4.70
2019-02-20T13:37:59.329Z,5.76
2019-02-20T13:43:03.597Z,4.40
2019-02-20T13:48:01.970Z,4.92
2019-02-20T13:53:14.285Z,9.65
2019-02-20T13:58:12.651Z,4.94
2019-02-20T14:03:14.553Z,4.13
2019-02-20T14:08:15.946Z,4.50
2019-02-20T14:13:15.916Z,4.88
2019-02-20T14:18:26.556Z,4.47
2019-02-20T14:23:27.180Z,5.22
2019-02-20T14:28:28.099Z,4.38
2019-02-20T14:33:31.470Z,9.00
2019-02-20T14:38:31.949Z,5.13
2019-02-20T14:43:40.899Z,5.75
2019-02-20T14:48:41.990Z,4.91
2019-02-20T14:53:42.405Z,5.42
2019-02-20T14:58:42.713Z,5.01
2019-02-20T15:03:47.789Z,4.99
2019-02-20T15:08:56.115Z,5.34
2019-02-20T15:14:18.918Z,6.14
2019-02-20T15:19:08.096Z,5.55
2019-02-20T15:24:19.026Z,10.64
2019-02-20T15:29:21.753Z,5.15
2019-02-20T15:34:21.719Z,4.63
2019-02-20T15:39:32.061Z,4.82
2019-02-20T15:44:32.489Z,5.86
2019-02-20T15:49:35.976Z,5.21
2019-02-20T15:54:35.081Z,4.42
2019-02-20T16:00:27.768Z,5.07
2019-02-20T16:04:46.181Z,5.55
2019-02-20T16:09:57.749Z,10.80
2019-02-20T16:14:59.630Z,5.70
2019-02-20T16:19:58.913Z,5.25
2019-02-20T16:25:09.680Z,5.79
2019-02-20T18:03:18.863Z,4.78
2019-02-20T18:08:18.750Z,4.19
2019-02-20T18:18:30.591Z,3.89
2019-02-20T18:23:31.088Z,3.59
2019-02-20T18:28:34.470Z,2.61
2019-02-20T18:33:33.148Z,3.50
2019-02-20T18:38:41.763Z,3.22
2019-02-20T18:43:47.929Z,3.66
2019-02-20T18:48:54.071Z,6.08
2019-02-20T18:54:00.115Z,2.96
2019-02-20T18:59:06.255Z,3.09
2019-02-20T19:04:17.560Z,3.49
2019-02-20T19:09:12.647Z,4.66
2019-02-20T19:14:20.694Z,3.87
2019-02-20T19:19:26.685Z,6.79
2019-02-20T19:24:32.683Z,4.01
2019-02-20T19:29:43.580Z,3.68
2019-02-20T19:34:44.286Z,3.00
2019-02-20T19:39:47.785Z,2.99
2019-02-20T19:44:46.186Z,4.36
2019-02-20T19:49:57.022Z,3.59
2019-02-20T19:54:55.494Z,3.28
2019-02-20T20:00:01.679Z,4.72
2019-02-20T20:05:07.703Z,3.41
2019-02-20T20:10:13.753Z,3.10
2019-02-20T20:15:21.741Z,4.14
2019-02-20T20:20:32.434Z,3.54
2019-02-20T20:25:29.616Z,4.61
2019-02-20T20:30:35.891Z,3.99
2019-02-20T20:35:43.993Z,4.49
2019-02-20T20:40:50.025Z,7.11
2019-02-20T20:45:56.344Z,4.58
2019-02-20T20:51:07.328Z,3.90
2019-02-20T20:56:07.554Z,5.07
2019-02-20T21:01:08.222Z,4.27
2019-02-20T21:06:05.335Z,8.11
2019-02-20T21:11:11.378Z,4.89
2019-02-20T21:16:20.776Z,6.33
2019-02-20T21:21:30.083Z,4.14
2019-02-20T21:26:36.151Z,5.33
2019-02-20T21:31:43.926Z,8.35
2019-02-20T21:36:52.494Z,4.83
2019-02-20T21:41:58.578Z,9.94
2019-02-20T21:47:04.658Z,7.70
2019-02-20T21:52:11.634Z,7.43
2019-02-20T21:57:17.508Z,4.32
2019-02-20T22:02:25.366Z,8.22
2019-02-20T22:07:31.501Z,4.33
2019-02-20T22:12:39.153Z,5.20
2019-02-20T22:17:49.689Z,4.39
2019-02-20T22:22:51.943Z,5.83
2019-02-20T22:27:52.861Z,5.32
2019-02-20T22:32:49.614Z,5.18
2019-02-20T22:37:55.628Z,9.65
2019-02-20T22:43:01.657Z,4.60
2019-02-20T22:48:07.650Z,9.51
2019-02-20T22:53:16.580Z,5.80
2019-02-20T22:58:25.399Z,16.42
2019-02-20T23:03:31.417Z,7.60
2019-02-20T23:08:37.412Z,6.84
2019-02-20T23:13:43.419Z,6.27
2019-02-20T23:18:52.638Z,6.37
2019-02-20T23:24:03.570Z,6.35
2019-02-20T23:29:02.515Z,7.49
2019-02-20T23:34:08.777Z,7.39
2019-02-20T23:39:14.901Z,15.12
2019-02-20T23:44:21.005Z,7.94
2019-02-20T23:49:27.019Z,8.55
2019-02-20T23:54:35.342Z,7.56
2019-02-20T23:59:41.360Z,14.34
